createdAt,value
2018-12-25T00:01:42.760Z,99.00
2018-12-25T00:04:12.151Z,98.80
2018-12-25T00:06:41.799Z,98.70
2018-12-25T00:09:11.302Z,98.70
2018-12-25T00:11:40.537Z,98.60
2018-12-25T00:14:12.685Z,98.50
2018-12-25T00:16:40.971Z,98.70
2018-12-25T00:19:10.439Z,98.80
2018-12-25T00:21:39.649Z,99.00
2018-12-25T00:24:08.949Z,98.90
2018-12-25T00:26:38.261Z,99.00
2018-12-25T00:29:07.846Z,99.10
2018-12-25T00:31:37.053Z,99.00
2018-12-25T00:34:06.972Z,99.10
2018-12-25T00:36:36.346Z,99.30
2018-12-25T00:39:07.695Z,99.10
2018-12-25T00:41:36.887Z,98.70
2018-12-25T00:44:06.251Z,98.50
2018-12-25T00:46:35.446Z,98.50
2018-12-25T00:49:04.674Z,98.90
2018-12-25T00:51:34.025Z,99.00
2018-12-25T00:54:03.325Z,98.50
2018-12-25T00:56:32.513Z,98.20
2018-12-25T00:59:01.741Z,98.30
2018-12-25T01:01:31.253Z,98.50
2018-12-25T01:04:00.523Z,98.50
2018-12-25T01:06:30.219Z,98.80
2018-12-25T01:08:59.695Z,98.80
2018-12-25T01:11:28.971Z,98.70
2018-12-25T01:13:58.165Z,98.60
2018-12-25T01:16:28.354Z,98.50
2018-12-25T01:18:58.834Z,98.80
2018-12-25T01:21:28.189Z,99.00
2018-12-25T01:23:58.077Z,99.00
2018-12-25T01:26:27.261Z,99.20
2018-12-25T01:28:56.527Z,99.10
2018-12-25T01:31:25.796Z,99.20
2018-12-25T01:33:55.019Z,99.30
2018-12-25T01:36:24.294Z,99.40
2018-12-25T01:38:53.514Z,99.40
2018-12-25T01:41:22.832Z,99.40
2018-12-25T01:43:52.060Z,99.50
2018-12-25T01:46:21.407Z,99.70
2018-12-25T01:48:50.605Z,99.70
2018-12-25T01:51:38.967Z,99.50
2018-12-25T01:54:08.246Z,99.20
2018-12-25T01:56:37.451Z,99.30
2018-12-25T01:59:06.641Z,99.40
2018-12-25T02:01:35.866Z,99.50
2018-12-25T02:04:05.247Z,99.40
2018-12-25T02:06:34.452Z,99.40
2018-12-25T02:09:05.008Z,99.40
2018-12-25T02:11:34.271Z,99.40
2018-12-25T02:14:03.476Z,99.60
2018-12-25T02:16:33.046Z,99.60
2018-12-25T02:19:02.558Z,99.40
2018-12-25T02:21:31.918Z,99.40
2018-12-25T02:24:01.345Z,99.60
2018-12-25T02:26:30.792Z,99.60
2018-12-25T02:29:00.125Z,99.60
2018-12-25T02:31:29.600Z,99.70
2018-12-25T02:34:04.802Z,99.50
2018-12-25T02:36:34.088Z,99.80
2018-12-25T02:39:04.586Z,99.50
2018-12-25T02:41:33.951Z,99.60
2018-12-25T02:44:03.134Z,99.70
2018-12-25T02:46:32.387Z,99.60
2018-12-25T02:49:01.645Z,99.70
2018-12-25T02:51:30.856Z,99.50
2018-12-25T02:54:00.071Z,99.30
2018-12-25T02:56:29.263Z,99.40
2018-12-25T02:58:58.461Z,99.50
2018-12-25T03:01:27.637Z,99.40
2018-12-25T03:03:56.862Z,99.30
2018-12-25T03:06:26.065Z,99.20
2018-12-25T03:08:55.264Z,99.30
2018-12-25T03:11:24.537Z,98.90
2018-12-25T03:13:53.755Z,98.80
2018-12-25T03:16:22.960Z,98.70
2018-12-25T03:18:52.159Z,98.50
2018-12-25T03:21:21.357Z,98.40
2018-12-25T03:23:50.538Z,98.30
2018-12-25T03:26:19.829Z,97.90
2018-12-25T03:28:49.026Z,97.80
2018-12-25T03:31:18.242Z,97.80
2018-12-25T03:33:47.433Z,97.60
2018-12-25T03:36:16.727Z,97.10
2018-12-25T03:38:45.933Z,96.90
2018-12-25T03:41:15.137Z,96.60
2018-12-25T03:43:44.329Z,97.20
2018-12-25T03:46:13.621Z,97.30
2018-12-25T03:48:42.820Z,97.00
2018-12-25T03:51:12.049Z,96.80
2018-12-25T03:53:41.279Z,96.90
2018-12-25T03:56:10.546Z,96.90
2018-12-25T03:58:39.738Z,96.80
2018-12-25T04:01:08.968Z,97.00
2018-12-25T04:03:38.270Z,97.10
2018-12-25T04:06:07.539Z,96.90
2018-12-25T04:08:36.821Z,96.80
2018-12-25T04:11:06.016Z,96.90
2018-12-25T04:13:35.238Z,96.70
2018-12-25T04:16:04.425Z,96.80
2018-12-25T04:18:33.804Z,96.60
2018-12-25T04:21:03.050Z,97.30
2018-12-25T04:23:32.222Z,97.00
2018-12-25T04:26:01.524Z,96.80
2018-12-25T04:28:30.765Z,97.00
2018-12-25T04:30:59.960Z,97.00
2018-12-25T04:33:29.141Z,97.40
2018-12-25T04:35:58.415Z,97.20
2018-12-25T04:38:27.608Z,97.30
2018-12-25T04:40:56.883Z,97.60
2018-12-25T04:43:26.199Z,97.70
2018-12-25T04:45:55.589Z,97.70
2018-12-25T04:48:24.771Z,97.80
2018-12-25T04:50:54.061Z,98.10
2018-12-25T04:53:23.281Z,98.20
2018-12-25T04:55:52.551Z,98.30
2018-12-25T04:58:21.759Z,98.40
2018-12-25T05:00:50.932Z,98.60
2018-12-25T05:03:20.246Z,98.90
2018-12-25T05:05:49.434Z,98.90
2018-12-25T05:08:18.632Z,98.90
2018-12-25T05:10:47.816Z,98.90
2018-12-25T05:13:17.052Z,99.10
2018-12-25T05:15:46.258Z,99.20
2018-12-25T05:18:15.490Z,99.30
2018-12-25T05:20:44.702Z,99.40
2018-12-25T05:23:13.898Z,99.50
2018-12-25T05:25:43.334Z,99.40
2018-12-25T05:28:12.506Z,99.50
2018-12-25T05:30:41.722Z,99.40
2018-12-25T05:33:10.903Z,99.50
2018-12-25T05:35:40.196Z,99.40
2018-12-25T05:38:09.384Z,99.80
2018-12-25T05:40:38.669Z,99.30
2018-12-25T05:43:07.926Z,99.40
2018-12-25T05:45:37.250Z,99.40
2018-12-25T05:48:06.465Z,99.10
2018-12-25T05:50:35.728Z,99.20
2018-12-25T05:53:04.944Z,99.30
2018-12-25T05:55:34.122Z,99.40
2018-12-25T05:58:03.367Z,99.40
2018-12-25T06:00:32.549Z,99.40
2018-12-25T06:03:01.765Z,99.40
2018-12-25T06:05:31.024Z,99.40
2018-12-25T06:08:00.308Z,99.80
2018-12-25T06:10:29.498Z,99.60
2018-12-25T06:12:58.709Z,99.30
2018-12-25T06:15:28.068Z,99.30
2018-12-25T06:17:57.281Z,99.40
2018-12-25T06:20:26.649Z,99.90
2018-12-25T06:22:55.845Z,99.20
2018-12-25T06:25:25.051Z,99.20
2018-12-25T06:27:54.228Z,99.20
2018-12-25T06:30:23.441Z,99.00
2018-12-25T06:32:52.621Z,99.20
2018-12-25T06:35:21.813Z,99.20
2018-12-25T06:37:51.013Z,99.20
2018-12-25T06:40:20.219Z,99.20
2018-12-25T06:42:49.407Z,99.20
2018-12-25T06:45:18.767Z,99.30
2018-12-25T06:47:50.897Z,99.50
2018-12-25T06:50:20.173Z,99.50
2018-12-25T06:52:49.379Z,99.50
2018-12-25T06:55:18.569Z,99.60
2018-12-25T06:57:47.871Z,99.70
2018-12-25T07:00:17.047Z,99.70
2018-12-25T07:02:46.253Z,99.60
2018-12-25T07:05:15.469Z,99.70
2018-12-25T07:07:44.819Z,99.60
2018-12-25T07:10:14.079Z,99.70
2018-12-25T07:12:43.298Z,99.80
2018-12-25T07:15:12.582Z,99.70
2018-12-25T07:17:44.800Z,99.80
2018-12-25T07:20:14.012Z,99.70
2018-12-25T07:22:43.400Z,99.70
2018-12-25T07:25:12.612Z,99.80
2018-12-25T07:27:41.821Z,99.90
2018-12-25T07:30:11.155Z,99.90
2018-12-25T07:32:44.125Z,99.90
2018-12-25T07:35:13.348Z,99.80
2018-12-25T07:37:42.558Z,99.90
2018-12-25T07:40:11.766Z,99.80
2018-12-25T07:42:40.966Z,99.80
2018-12-25T07:45:10.180Z,99.40
2018-12-25T07:47:39.394Z,99.60
2018-12-25T07:50:08.636Z,99.60
2018-12-25T07:52:37.832Z,99.40
2018-12-25T07:55:07.097Z,99.40
2018-12-25T07:57:36.444Z,99.60
2018-12-25T08:00:06.315Z,99.50
2018-12-25T08:02:35.680Z,99.60
2018-12-25T08:05:06.208Z,99.60
2018-12-25T08:07:36.106Z,99.40
2018-12-25T08:10:05.412Z,99.30
2018-12-25T08:12:34.799Z,99.20
2018-12-25T08:15:04.563Z,99.10
2018-12-25T08:17:33.961Z,98.80
2018-12-25T08:20:04.063Z,98.60
2018-12-25T08:22:33.352Z,98.60
2018-12-25T08:25:02.629Z,97.90
2018-12-25T08:27:31.864Z,97.90
2018-12-25T08:30:01.184Z,97.90
2018-12-25T08:32:30.439Z,97.60
2018-12-25T08:34:59.651Z,97.50
2018-12-25T08:37:29.267Z,97.20
2018-12-25T08:39:58.488Z,97.10
2018-12-25T08:42:27.755Z,96.90
2018-12-25T08:44:57.105Z,97.20
2018-12-25T08:47:26.305Z,97.10
2018-12-25T08:49:55.920Z,97.00
2018-12-25T08:52:25.173Z,96.90
2018-12-25T08:54:54.805Z,96.70
2018-12-25T08:57:32.469Z,96.50
2018-12-25T09:00:11.653Z,95.90
2018-12-25T09:02:47.697Z,95.50
2018-12-25T09:05:16.978Z,95.20
2018-12-25T09:07:46.167Z,94.70
2018-12-25T09:10:15.803Z,93.90
2018-12-25T09:12:45.143Z,93.50
2018-12-25T09:15:14.419Z,92.60
2018-12-25T09:17:43.638Z,92.70
2018-12-25T09:20:12.844Z,91.20
2018-12-25T09:22:42.130Z,91.40
2018-12-25T09:25:11.322Z,91.60
2018-12-25T09:27:40.520Z,91.80
2018-12-25T09:30:09.800Z,92.10
2018-12-25T09:32:39.631Z,91.90
2018-12-25T09:35:08.847Z,92.40
2018-12-25T09:37:38.048Z,92.20
2018-12-25T09:40:07.736Z,92.20
2018-12-25T09:42:36.962Z,92.50
2018-12-25T09:45:06.466Z,92.70
2018-12-25T09:47:35.746Z,93.20
2018-12-25T09:50:10.891Z,92.90
2018-12-25T09:52:40.076Z,93.00
2018-12-25T09:55:09.276Z,93.30
2018-12-25T09:57:38.499Z,92.60
2018-12-25T10:00:08.265Z,93.40
2018-12-25T10:02:37.556Z,93.20
2018-12-25T10:05:06.908Z,93.70
2018-12-25T10:07:36.196Z,93.80
2018-12-25T10:10:05.614Z,93.00
2018-12-25T10:12:34.973Z,93.40
2018-12-25T10:15:04.204Z,93.70
2018-12-25T10:17:33.424Z,94.00
2018-12-25T10:20:02.669Z,94.10
2018-12-25T10:22:31.920Z,93.90
2018-12-25T10:25:01.197Z,93.50
2018-12-25T10:27:30.390Z,94.00
2018-12-25T10:29:59.627Z,94.10
2018-12-25T10:32:28.860Z,93.60
2018-12-25T10:34:58.078Z,93.70
2018-12-25T10:37:27.290Z,93.50
2018-12-25T10:39:56.510Z,92.90
2018-12-25T10:42:25.708Z,93.60
2018-12-25T10:44:58.698Z,93.30
2018-12-25T10:47:27.976Z,93.10
2018-12-25T10:50:01.098Z,93.40
2018-12-25T10:52:30.387Z,92.50
2018-12-25T10:54:59.691Z,92.70
2018-12-25T10:57:29.094Z,92.30
2018-12-25T10:59:58.304Z,92.70
2018-12-25T11:02:30.906Z,92.50
2018-12-25T11:05:00.210Z,93.00
2018-12-25T11:07:29.482Z,92.00
2018-12-25T11:10:04.632Z,92.40
2018-12-25T11:12:34.116Z,92.50
2018-12-25T11:15:03.341Z,92.40
2018-12-25T11:17:32.590Z,92.70
2018-12-25T11:20:01.805Z,92.60
2018-12-25T11:22:31.125Z,92.70
2018-12-25T11:25:00.397Z,92.60
2018-12-25T11:27:30.443Z,92.40
2018-12-25T11:30:00.313Z,92.50
2018-12-25T11:32:29.697Z,92.70
2018-12-25T11:34:58.998Z,92.40
2018-12-25T11:37:28.452Z,92.40
2018-12-25T11:39:57.781Z,91.80
2018-12-25T11:42:26.962Z,92.10
2018-12-25T11:44:56.198Z,92.50
2018-12-25T11:47:26.057Z,92.00
2018-12-25T11:49:55.739Z,91.70
2018-12-25T11:52:28.516Z,91.50
2018-12-25T11:55:14.946Z,92.00
2018-12-25T11:57:44.226Z,92.10
2018-12-25T12:00:13.547Z,92.60
2018-12-25T12:02:42.765Z,92.40
2018-12-25T12:05:11.992Z,91.70
2018-12-25T12:07:41.340Z,91.90
2018-12-25T12:10:10.567Z,91.20
2018-12-25T12:12:39.917Z,91.90
2018-12-25T12:15:09.180Z,91.60
2018-12-25T12:17:38.471Z,91.40
2018-12-25T12:20:07.873Z,91.90
2018-12-25T12:22:37.393Z,92.00
2018-12-25T12:25:06.995Z,92.30
2018-12-25T12:27:37.432Z,92.30
2018-12-25T12:30:07.088Z,92.20
2018-12-25T12:32:36.353Z,92.70
2018-12-25T12:35:05.549Z,92.90
2018-12-25T12:37:34.781Z,92.30
2018-12-25T12:40:04.167Z,92.60
2018-12-25T12:42:33.529Z,92.60
2018-12-25T12:45:03.587Z,92.20
2018-12-25T12:47:33.463Z,93.00
2018-12-25T12:50:03.880Z,92.00
2018-12-25T12:52:33.192Z,92.60
2018-12-25T12:55:04.539Z,92.70
2018-12-25T12:57:36.755Z,92.80
2018-12-25T13:00:07.761Z,92.80
2018-12-25T13:02:38.490Z,92.40
2018-12-25T13:05:09.644Z,92.40
2018-12-25T13:07:39.517Z,91.80
2018-12-25T13:10:10.035Z,92.10
2018-12-25T13:12:39.551Z,91.40
2018-12-25T13:15:11.208Z,91.80
2018-12-25T13:17:41.739Z,92.00
2018-12-25T13:20:11.527Z,91.80
2018-12-25T13:22:40.980Z,92.00
2018-12-25T13:25:10.932Z,92.70
2018-12-25T13:27:40.331Z,92.70
2018-12-25T13:30:10.937Z,93.00
2018-12-25T13:32:40.403Z,92.80
2018-12-25T13:35:10.152Z,92.90
2018-12-25T13:37:39.718Z,92.80
2018-12-25T13:40:09.126Z,93.10
2018-12-25T13:42:40.468Z,92.90
2018-12-25T13:45:12.646Z,92.70
2018-12-25T13:47:42.959Z,92.80
2018-12-25T13:50:12.250Z,92.70
2018-12-25T13:52:41.688Z,92.80
2018-12-25T13:55:10.927Z,92.90
2018-12-25T13:57:40.412Z,93.00
2018-12-25T14:00:10.010Z,93.20
2018-12-25T14:02:39.470Z,93.40
2018-12-25T14:05:08.998Z,93.40
2018-12-25T14:07:38.300Z,93.30
2018-12-25T14:10:08.390Z,93.50
2018-12-25T14:12:38.982Z,93.30
2018-12-25T14:15:08.356Z,93.10
2018-12-25T14:17:37.737Z,93.60
2018-12-25T14:20:07.027Z,93.50
2018-12-25T14:22:36.290Z,93.40
2018-12-25T14:25:05.822Z,93.20
2018-12-25T14:27:35.102Z,93.30
2018-12-25T14:30:04.674Z,93.10
2018-12-25T14:32:33.975Z,93.20
2018-12-25T14:35:03.310Z,93.40
2018-12-25T14:37:32.602Z,93.50
2018-12-25T14:40:01.902Z,93.10
2018-12-25T14:42:31.210Z,92.60
2018-12-25T14:45:00.492Z,92.90
2018-12-25T14:47:29.930Z,93.10
2018-12-25T14:49:59.389Z,93.40
2018-12-25T14:52:28.679Z,93.70
2018-12-25T14:54:58.041Z,93.70
2018-12-25T14:57:27.345Z,93.70
2018-12-25T14:59:56.643Z,93.80
2018-12-25T15:02:25.996Z,93.90
2018-12-25T15:04:55.193Z,94.10
2018-12-25T15:07:24.445Z,94.20
2018-12-25T15:09:53.822Z,94.30
2018-12-25T15:12:23.099Z,94.20
2018-12-25T15:14:54.303Z,94.50
2018-12-25T15:17:23.373Z,94.40
2018-12-25T15:19:52.781Z,94.60
2018-12-25T15:22:22.005Z,94.70
2018-12-25T15:24:51.331Z,94.30
2018-12-25T15:27:20.593Z,94.30
2018-12-25T15:29:52.853Z,94.20
2018-12-25T15:32:26.825Z,94.20
2018-12-25T15:34:57.242Z,94.20
2018-12-25T15:37:27.375Z,94.20
2018-12-25T15:39:57.703Z,94.00
2018-12-25T15:42:27.549Z,93.80
2018-12-25T15:44:56.969Z,93.80
2018-12-25T15:47:48.225Z,93.70
2018-12-25T15:50:21.371Z,93.70
2018-12-25T15:52:51.707Z,94.00
2018-12-25T15:55:21.235Z,94.00
2018-12-25T15:57:50.679Z,94.20
2018-12-25T16:00:21.873Z,94.20
2018-12-25T16:02:51.361Z,94.30
2018-12-25T16:05:20.669Z,94.50
2018-12-25T16:07:50.039Z,94.40
2018-12-25T16:10:28.993Z,94.50
2018-12-25T16:13:07.067Z,94.30
2018-12-25T16:15:36.267Z,94.40
2018-12-25T16:18:05.714Z,94.30
2018-12-25T16:20:36.662Z,94.20
2018-12-25T16:23:06.012Z,94.50
2018-12-25T16:25:47.736Z,94.10
2018-12-25T16:28:17.271Z,94.30
2018-12-25T16:30:46.614Z,94.10
2018-12-25T16:33:15.946Z,94.10
2018-12-25T16:35:45.302Z,94.10
2018-12-25T16:38:14.592Z,94.00
2018-12-25T16:40:43.926Z,93.90
2018-12-25T16:43:13.250Z,93.80
2018-12-25T16:45:42.528Z,94.00
2018-12-25T16:48:11.931Z,94.20
2018-12-25T16:50:41.288Z,94.50
2018-12-25T16:53:10.564Z,94.20
2018-12-25T16:55:39.893Z,94.10
2018-12-25T16:58:09.109Z,94.00
2018-12-25T17:00:38.353Z,93.80
2018-12-25T17:03:07.666Z,93.90
2018-12-25T17:05:36.922Z,93.60
2018-12-25T17:08:06.215Z,93.70
2018-12-25T17:10:35.527Z,94.00
2018-12-25T17:13:04.872Z,94.00
2018-12-25T17:15:34.160Z,94.10
2018-12-25T17:18:03.509Z,94.00
2018-12-25T17:20:32.787Z,94.00
2018-12-25T17:23:02.683Z,93.80
2018-12-25T17:25:32.003Z,93.80
2018-12-25T17:28:01.385Z,93.90
2018-12-25T17:30:30.737Z,93.80
2018-12-25T17:33:00.089Z,93.80
2018-12-25T17:35:29.569Z,94.10
2018-12-25T17:37:58.933Z,93.60
2018-12-25T17:40:28.303Z,93.90
2018-12-25T17:42:57.717Z,94.00
2018-12-25T17:45:27.154Z,94.10
2018-12-25T17:47:56.515Z,94.10
2018-12-25T17:50:25.969Z,94.20
2018-12-25T17:52:55.395Z,94.30
2018-12-25T17:55:24.787Z,94.40
2018-12-25T17:57:54.179Z,94.40
2018-12-25T18:00:23.511Z,94.70
2018-12-25T18:02:52.894Z,94.90
2018-12-25T18:05:22.229Z,95.00
2018-12-25T18:07:51.600Z,95.10
2018-12-25T18:10:20.971Z,95.30
2018-12-25T18:12:50.242Z,95.50
2018-12-25T18:15:19.680Z,95.70
2018-12-25T18:17:49.251Z,95.70
2018-12-25T18:20:19.629Z,95.80
2018-12-25T18:22:50.323Z,95.90
2018-12-25T18:25:19.686Z,96.00
2018-12-25T18:27:49.147Z,95.80
2018-12-25T18:30:18.532Z,95.50
2018-12-25T18:32:49.093Z,95.50
2018-12-25T18:35:18.501Z,95.60
2018-12-25T18:37:47.876Z,95.90
2018-12-25T18:40:18.415Z,96.10
2018-12-25T18:42:47.823Z,96.30
2018-12-25T18:45:19.532Z,96.30
2018-12-25T18:47:49.220Z,96.40
2018-12-25T18:50:18.690Z,96.10
2018-12-25T18:52:48.215Z,96.20
2018-12-25T18:55:17.590Z,96.30
2018-12-25T18:57:47.296Z,96.40
2018-12-25T19:00:16.749Z,96.60
2018-12-25T19:02:46.349Z,96.50
2018-12-25T19:05:15.798Z,96.40
2018-12-25T19:07:45.158Z,96.20
2018-12-25T19:10:14.536Z,96.00
2018-12-25T19:12:43.994Z,95.90
2018-12-25T19:15:26.880Z,96.00
2018-12-25T19:17:58.184Z,95.90
2018-12-25T19:20:27.532Z,95.80
2018-12-25T19:22:57.222Z,95.70
2018-12-25T19:25:26.544Z,95.70
2018-12-25T19:27:55.962Z,95.60
2018-12-25T19:30:27.284Z,95.60
2018-12-25T19:32:56.650Z,95.80
2018-12-25T19:35:26.025Z,95.90
2018-12-25T19:37:56.466Z,96.10
2018-12-25T19:40:27.853Z,96.30
2018-12-25T19:42:58.332Z,96.30
2018-12-25T19:45:29.219Z,96.50
2018-12-25T19:47:59.165Z,96.50
2018-12-25T19:50:28.613Z,96.40
2018-12-25T19:52:59.130Z,96.30
2018-12-25T19:55:28.578Z,96.40
2018-12-25T19:57:58.051Z,96.50
2018-12-25T20:00:29.530Z,96.60
2018-12-25T20:03:12.529Z,96.70
2018-12-25T20:06:34.033Z,96.60
2018-12-25T20:09:55.019Z,96.70
2018-12-25T20:13:07.119Z,96.70
2018-12-25T20:16:10.236Z,96.90
2018-12-25T20:19:04.026Z,97.00
2018-12-25T20:22:20.181Z,97.60
2018-12-25T20:25:24.923Z,97.50
2018-12-25T20:28:39.899Z,97.60
2018-12-25T20:31:44.199Z,97.80
2018-12-25T20:34:55.635Z,97.70
2018-12-25T20:38:24.175Z,98.00
2018-12-25T20:41:35.361Z,98.20
2018-12-25T20:44:34.061Z,98.00
2018-12-25T20:47:40.835Z,98.10
2018-12-25T20:51:06.287Z,98.10
2018-12-25T20:54:40.723Z,98.20
2018-12-25T20:57:54.893Z,98.10
2018-12-25T21:01:20.401Z,98.10
2018-12-25T21:04:49.431Z,98.30
2018-12-25T21:07:55.936Z,98.40
2018-12-25T21:11:09.860Z,98.70
2018-12-25T21:14:10.470Z,98.90
2018-12-25T21:17:26.836Z,98.80
2018-12-25T21:20:37.141Z,99.00
2018-12-25T21:23:59.212Z,98.80
2018-12-25T21:27:04.013Z,98.90
2018-12-25T21:29:35.550Z,99.00
2018-12-25T21:32:05.453Z,98.80
2018-12-25T21:34:36.025Z,98.70
2018-12-25T21:37:10.142Z,98.90
2018-12-25T21:39:39.586Z,99.10
2018-12-25T21:42:10.393Z,99.10
2018-12-25T21:44:39.970Z,99.20
2018-12-25T21:47:11.398Z,99.20
2018-12-25T21:49:46.510Z,99.30
2018-12-25T21:52:17.291Z,99.20
2018-12-25T21:54:49.337Z,99.40
2018-12-25T21:57:21.576Z,99.60
2018-12-25T21:59:51.121Z,99.60
2018-12-25T22:02:21.839Z,99.70
2018-12-25T22:04:51.436Z,99.50
2018-12-25T22:07:21.060Z,99.50
2018-12-25T22:09:50.671Z,99.40
2018-12-25T22:12:20.264Z,99.60
2018-12-25T22:14:49.982Z,99.40
2018-12-25T22:17:19.478Z,99.30
2018-12-25T22:19:49.426Z,99.20
2018-12-25T22:22:19.200Z,99.50
2018-12-25T22:24:49.520Z,99.40
2018-12-25T22:27:20.183Z,99.40
2018-12-25T22:29:50.457Z,99.40
2018-12-25T22:32:20.340Z,99.40
2018-12-25T22:34:51.145Z,99.20
2018-12-25T22:37:21.570Z,99.20
2018-12-25T22:39:50.954Z,99.30
2018-12-25T22:42:21.836Z,99.40
2018-12-25T22:44:51.702Z,99.40
2018-12-25T22:47:21.441Z,99.40
2018-12-25T22:49:52.812Z,99.50
2018-12-25T22:52:22.415Z,99.30
2018-12-25T22:54:52.145Z,99.20
2018-12-25T22:57:26.308Z,99.30
2018-12-25T22:59:58.969Z,99.20
2018-12-25T23:02:28.581Z,99.10
2018-12-25T23:04:57.954Z,99.20
2018-12-25T23:07:27.285Z,99.30
2018-12-25T23:09:56.615Z,99.40
2018-12-25T23:12:26.019Z,99.20
2018-12-25T23:14:55.434Z,99.40
2018-12-25T23:17:24.781Z,99.40
2018-12-25T23:19:54.471Z,99.70
2018-12-25T23:22:23.779Z,99.90
2018-12-25T23:24:55.335Z,99.80
2018-12-25T23:27:24.727Z,99.80
2018-12-25T23:29:54.116Z,99.70
2018-12-25T23:32:23.501Z,99.80
2018-12-25T23:34:53.359Z,99.70
2018-12-25T23:37:22.635Z,99.80
2018-12-25T23:39:52.625Z,99.70
2018-12-25T23:42:22.489Z,99.60
2018-12-25T23:44:52.161Z,99.80
2018-12-25T23:47:21.448Z,99.90
2018-12-25T23:49:50.721Z,99.90
2018-12-25T23:52:19.965Z,99.90
2018-12-25T23:54:49.414Z,99.90
2018-12-25T23:57:19.149Z,99.90
2018-12-25T23:59:49.418Z,99.90
